Time;durP1;ratioP1;P1;durP2;ratioP2;P2;SDS_P1;SDS_P2;PMS_P1;PMS_P2;Temp;Humidity;BMP_temperature;BMP_pressure;BME280_temperature;BME280_humidity;BME280_pressure;Samples;Min_cycle;Max_cycle;Signal;HPM_P1;HPM_P2
2022/07/25 00:01:54;;;;;;;5.88;3.65;;;;;;;;;;5051222;28;20487;-75
2022/07/25 00:04:20;;;;;;;8.35;3.45;;;;;;;;;;5051146;28;20029;-76
2022/07/25 00:06:47;;;;;;;7.55;3.33;;;;;;;;;;5051072;28;20422;-76
2022/07/25 00:09:13;;;;;;;6.40;3.80;;;;;;;;;;5051116;28;20437;-76
2022/07/25 00:11:39;;;;;;;6.63;3.80;;;;;;;;;;5051191;28;20021;-76
2022/07/25 00:14:05;;;;;;;8.05;3.47;;;;;;;;;;5051077;28;20029;-75
2022/07/25 00:16:31;;;;;;;6.13;3.30;;;;;;;;;;5051473;28;20025;-76
2022/07/25 00:18:57;;;;;;;4.50;3.65;;;;;;;;;;5050956;28;20049;-75
2022/07/25 00:21:23;;;;;;;6.55;3.88;;;;;;;;;;5050849;28;20051;-76
2022/07/25 00:23:49;;;;;;;6.18;3.65;;;;;;;;;;5051043;28;20025;-75
2022/07/25 00:26:15;;;;;;;5.43;4.18;;;;;;;;;;5050927;28;20024;-76
2022/07/25 00:28:42;;;;;;;5.10;3.65;;;;;;;;;;5049519;28;20021;-76
2022/07/25 00:31:08;;;;;;;5.72;3.78;;;;;;;;;;5050837;28;20048;-75
2022/07/25 00:33:34;;;;;;;7.30;3.50;;;;;;;;;;5050969;28;20021;-76
2022/07/25 00:36:00;;;;;;;8.23;3.78;;;;;;;;;;5050658;28;20033;-75
2022/07/25 00:38:26;;;;;;;6.20;3.85;;;;;;;;;;5050715;28;20185;-76
2022/07/25 00:40:52;;;;;;;7.13;4.32;;;;;;;;;;5052417;28;20021;-76
2022/07/25 00:43:18;;;;;;;10.48;3.70;;;;;;;;;;5054974;28;20036;-76
2022/07/25 00:45:44;;;;;;;6.95;4.00;;;;;;;;;;5053550;28;20467;-76
2022/07/25 00:48:10;;;;;;;4.80;3.42;;;;;;;;;;5055042;28;20033;-76
2022/07/25 00:50:36;;;;;;;8.75;3.95;;;;;;;;;;5054870;28;20391;-76
2022/07/25 00:53:02;;;;;;;8.07;3.72;;;;;;;;;;5054897;28;20067;-76
2022/07/25 00:55:28;;;;;;;5.78;4.50;;;;;;;;;;5053412;28;20029;-76
2022/07/25 00:57:54;;;;;;;6.72;4.05;;;;;;;;;;5054666;28;20047;-76
2022/07/25 01:00:21;;;;;;;5.57;4.15;;;;;;;;;;5054827;28;20021;-76
2022/07/25 01:02:47;;;;;;;7.50;4.40;;;;;;;;;;5054669;28;20047;-76
2022/07/25 01:05:13;;;;;;;9.10;4.47;;;;;;;;;;5053224;28;20483;-76
2022/07/25 01:07:39;;;;;;;7.05;4.47;;;;;;;;;;5054655;28;20079;-76
2022/07/25 01:10:06;;;;;;;7.18;4.43;;;;;;;;;;5054321;28;20060;-75
2022/07/25 01:12:32;;;;;;;7.88;4.47;;;;;;;;;;5054449;28;20460;-76
2022/07/25 01:14:58;;;;;;;8.95;5.28;;;;;;;;;;5054497;28;20021;-76
2022/07/25 01:17:24;;;;;;;9.45;5.47;;;;;;;;;;5054282;28;20415;-75
2022/07/25 01:19:52;;;;;;;8.55;4.30;;;;;;;;;;5054146;28;20194;-76
2022/07/25 01:22:18;;;;;;;8.18;4.75;;;;;;;;;;5054281;28;20074;-76
2022/07/25 01:24:44;;;;;;;6.95;5.20;;;;;;;;;;5054262;28;20032;-76
2022/07/25 01:27:10;;;;;;;8.27;5.45;;;;;;;;;;5054134;28;20025;-75
2022/07/25 01:29:36;;;;;;;7.22;5.13;;;;;;;;;;5054144;28;20032;-75
2022/07/25 01:32:02;;;;;;;10.13;5.20;;;;;;;;;;5054291;28;20108;-76
2022/07/25 01:34:28;;;;;;;7.20;5.10;;;;;;;;;;5054222;28;20075;-76
2022/07/25 01:36:54;;;;;;;15.02;5.70;;;;;;;;;;5053950;28;20067;-76
2022/07/25 01:39:20;;;;;;;9.68;5.53;;;;;;;;;;5054175;28;20029;-76
2022/07/25 01:41:46;;;;;;;9.75;5.90;;;;;;;;;;5053907;28;20032;-76
2022/07/25 01:44:12;;;;;;;9.00;6.20;;;;;;;;;;5054050;28;20025;-75
2022/07/25 01:46:38;;;;;;;11.77;6.00;;;;;;;;;;5053947;28;20025;-76
2022/07/25 01:49:04;;;;;;;11.35;5.95;;;;;;;;;;5053803;28;20024;-76
2022/07/25 01:51:30;;;;;;;9.85;5.75;;;;;;;;;;5052524;28;20056;-76
2022/07/25 01:53:56;;;;;;;10.93;5.38;;;;;;;;;;5053839;28;20487;-76
2022/07/25 01:56:22;;;;;;;10.90;5.60;;;;;;;;;;5053436;28;20112;-76
2022/07/25 01:58:48;;;;;;;10.32;5.90;;;;;;;;;;5053787;28;20032;-75
2022/07/25 02:01:14;;;;;;;8.52;5.93;;;;;;;;;;5053666;28;20099;-76
2022/07/25 02:03:40;;;;;;;7.78;5.88;;;;;;;;;;5052316;28;20066;-75
2022/07/25 02:06:07;;;;;;;15.13;7.32;;;;;;;;;;5053487;28;20402;-76
2022/07/25 02:08:34;;;;;;;10.50;6.70;;;;;;;;;;5053507;28;20064;-75
2022/07/25 02:11:00;;;;;;;13.02;7.30;;;;;;;;;;5053320;28;20098;-76
2022/07/25 02:13:26;;;;;;;11.10;6.80;;;;;;;;;;5053459;28;20025;-76
2022/07/25 02:15:52;;;;;;;13.00;7.00;;;;;;;;;;5053611;28;20025;-75
2022/07/25 02:18:18;;;;;;;11.40;7.00;;;;;;;;;;5053278;28;20049;-75
2022/07/25 02:20:45;;;;;;;11.77;7.05;;;;;;;;;;5053228;28;20025;-75
2022/07/25 02:23:11;;;;;;;13.00;6.60;;;;;;;;;;5053177;28;20024;-75
2022/07/25 02:25:37;;;;;;;12.35;6.90;;;;;;;;;;5053207;28;20098;-75
2022/07/25 02:28:03;;;;;;;11.80;7.72;;;;;;;;;;5053097;28;20021;-76
2022/07/25 02:30:29;;;;;;;14.07;7.00;;;;;;;;;;5052946;28;20021;-75
2022/07/25 02:32:55;;;;;;;11.88;7.68;;;;;;;;;;5051870;28;20032;-76
2022/07/25 02:35:21;;;;;;;13.52;7.75;;;;;;;;;;5052744;28;20096;-76
2022/07/25 02:37:47;;;;;;;8.88;6.85;;;;;;;;;;5052831;28;20100;-76
2022/07/25 02:40:13;;;;;;;16.63;7.93;;;;;;;;;;5052916;28;20033;-76
2022/07/25 02:42:39;;;;;;;14.38;7.32;;;;;;;;;;5052821;28;20036;-75
2022/07/25 02:45:06;;;;;;;11.40;7.10;;;;;;;;;;5052844;28;20032;-75
2022/07/25 02:47:32;;;;;;;8.65;6.55;;;;;;;;;;5052761;28;20083;-76
2022/07/25 02:49:58;;;;;;;11.65;7.28;;;;;;;;;;5052636;28;20025;-76
2022/07/25 02:52:24;;;;;;;16.05;7.20;;;;;;;;;;5052741;28;20445;-76
2022/07/25 02:54:50;;;;;;;12.48;7.43;;;;;;;;;;5052503;28;20885;-76
2022/07/25 02:57:16;;;;;;;9.90;7.25;;;;;;;;;;5052356;28;20075;-75
2022/07/25 02:59:42;;;;;;;11.45;7.72;;;;;;;;;;5052523;28;20028;-76
2022/07/25 03:02:08;;;;;;;14.13;7.97;;;;;;;;;;5052358;28;20025;-76
2022/07/25 03:04:34;;;;;;;11.30;8.10;;;;;;;;;;5052179;28;20095;-76
2022/07/25 03:07:00;;;;;;;12.80;8.15;;;;;;;;;;5052163;28;20484;-76
2022/07/25 03:09:26;;;;;;;12.85;7.60;;;;;;;;;;5052323;28;20379;-76
2022/07/25 03:11:52;;;;;;;12.00;8.65;;;;;;;;;;5052203;28;20028;-76
2022/07/25 03:14:18;;;;;;;12.27;9.15;;;;;;;;;;5052413;28;20421;-77
2022/07/25 03:16:44;;;;;;;13.68;8.15;;;;;;;;;;5052128;28;20530;-76
2022/07/25 03:19:11;;;;;;;12.65;6.95;;;;;;;;;;5052243;28;20045;-76
2022/07/25 03:21:37;;;;;;;13.98;8.48;;;;;;;;;;5052047;28;20027;-75
2022/07/25 03:24:03;;;;;;;12.98;8.57;;;;;;;;;;5051962;28;20028;-76
2022/07/25 03:26:29;;;;;;;11.35;7.40;;;;;;;;;;5051840;28;20021;-76
2022/07/25 03:28:55;;;;;;;11.85;7.88;;;;;;;;;;5052190;28;20021;-76
2022/07/25 03:31:22;;;;;;;16.65;9.02;;;;;;;;;;5051927;28;20533;-75
2022/07/25 03:33:48;;;;;;;9.02;6.95;;;;;;;;;;5051941;28;20664;-76
2022/07/25 03:36:14;;;;;;;11.80;7.72;;;;;;;;;;5051990;28;20036;-75
2022/07/25 03:38:40;;;;;;;11.25;8.48;;;;;;;;;;5037943;28;20040;-76
2022/07/25 03:41:06;;;;;;;12.77;8.18;;;;;;;;;;5032024;28;20025;-76
2022/07/25 03:43:32;;;;;;;11.68;7.55;;;;;;;;;;5031846;28;20029;-76
2022/07/25 03:45:58;;;;;;;9.77;7.25;;;;;;;;;;5031830;28;20033;-76
2022/07/25 03:48:24;;;;;;;14.65;6.97;;;;;;;;;;5031979;28;20029;-75
2022/07/25 03:50:50;;;;;;;9.63;6.93;;;;;;;;;;5051055;28;20107;-75
2022/07/25 03:53:16;;;;;;;9.93;7.30;;;;;;;;;;5052036;28;20044;-75
2022/07/25 03:55:42;;;;;;;13.65;7.43;;;;;;;;;;5051720;28;20590;-76
2022/07/25 03:58:08;;;;;;;15.43;8.52;;;;;;;;;;5051513;28;20029;-76
2022/07/25 04:00:34;;;;;;;13.13;8.52;;;;;;;;;;5051504;28;20033;-75
2022/07/25 04:03:00;;;;;;;14.98;9.02;;;;;;;;;;5050277;28;20028;-76
2022/07/25 04:05:26;;;;;;;17.20;8.80;;;;;;;;;;5050199;28;20025;-76
2022/07/25 04:07:52;;;;;;;28.33;9.52;;;;;;;;;;5051541;28;20432;-76
2022/07/25 04:10:18;;;;;;;14.88;9.65;;;;;;;;;;5051603;28;20356;-76
2022/07/25 04:12:44;;;;;;;14.13;9.20;;;;;;;;;;5051433;28;20025;-76
2022/07/25 04:15:11;;;;;;;15.65;9.40;;;;;;;;;;5053094;28;20087;-76
2022/07/25 04:17:37;;;;;;;12.88;9.02;;;;;;;;;;5055509;28;20028;-76
2022/07/25 04:20:03;;;;;;;15.75;9.98;;;;;;;;;;5055277;28;20434;-76
2022/07/25 04:22:29;;;;;;;13.95;9.73;;;;;;;;;;5055542;28;20040;-76
2022/07/25 04:24:56;;;;;;;12.98;9.13;;;;;;;;;;5055410;28;20477;-76
2022/07/25 04:27:22;;;;;;;14.40;9.52;;;;;;;;;;5055452;28;20027;-76
2022/07/25 04:29:48;;;;;;;15.63;9.25;;;;;;;;;;5055348;28;20430;-76
2022/07/25 04:32:15;;;;;;;13.05;9.05;;;;;;;;;;5055461;28;20052;-76
2022/07/25 04:34:43;;;;;;;14.60;9.10;;;;;;;;;;5055279;28;20545;-76
2022/07/25 04:37:09;;;;;;;13.35;9.27;;;;;;;;;;5055096;28;20119;-76
2022/07/25 04:39:35;;;;;;;13.85;9.25;;;;;;;;;;5055255;28;20475;-76
2022/07/25 04:42:01;;;;;;;13.73;8.50;;;;;;;;;;5055071;28;20048;-76
2022/07/25 04:44:27;;;;;;;13.63;9.65;;;;;;;;;;5055273;28;20033;-76
2022/07/25 04:46:53;;;;;;;14.95;8.98;;;;;;;;;;5055056;28;20112;-76
2022/07/25 04:49:19;;;;;;;14.55;9.90;;;;;;;;;;5055034;28;20033;-75
2022/07/25 04:51:45;;;;;;;15.23;9.73;;;;;;;;;;5054950;28;20092;-75
2022/07/25 04:54:11;;;;;;;14.25;9.23;;;;;;;;;;5055044;28;20143;-76
2022/07/25 04:56:38;;;;;;;12.07;9.10;;;;;;;;;;5054822;28;20025;-76
2022/07/25 04:59:04;;;;;;;13.27;9.02;;;;;;;;;;5054867;28;20036;-75
2022/07/25 05:01:30;;;;;;;14.07;9.40;;;;;;;;;;5054886;28;20043;-76
2022/07/25 05:03:56;;;;;;;14.20;10.18;;;;;;;;;;5054947;28;20035;-76
2022/07/25 05:06:22;;;;;;;13.48;9.65;;;;;;;;;;5054745;28;20029;-76
2022/07/25 05:08:48;;;;;;;15.55;10.10;;;;;;;;;;5054866;28;20092;-75
2022/07/25 05:11:14;;;;;;;15.65;10.40;;;;;;;;;;5054514;28;20032;-75
2022/07/25 05:13:40;;;;;;;14.30;10.15;;;;;;;;;;5054302;28;20427;-75
2022/07/25 05:16:06;;;;;;;14.65;9.50;;;;;;;;;;5054694;28;20017;-75
2022/07/25 05:18:33;;;;;;;17.40;10.18;;;;;;;;;;5054402;28;20060;-76
2022/07/25 05:20:59;;;;;;;14.90;9.52;;;;;;;;;;5054416;28;20438;-76
2022/07/25 05:23:25;;;;;;;15.25;10.05;;;;;;;;;;5054362;28;20029;-75
2022/07/25 05:25:51;;;;;;;20.17;9.90;;;;;;;;;;5054263;28;20103;-76
2022/07/25 05:28:18;;;;;;;15.75;10.70;;;;;;;;;;5054346;28;20040;-76
2022/07/25 05:30:44;;;;;;;20.27;10.85;;;;;;;;;;5054248;28;20029;-76
2022/07/25 05:33:10;;;;;;;18.00;9.70;;;;;;;;;;5054349;28;20080;-76
2022/07/25 05:35:36;;;;;;;16.02;10.27;;;;;;;;;;5054246;28;20013;-76
2022/07/25 05:38:02;;;;;;;16.27;10.43;;;;;;;;;;5049657;28;20456;-76
2022/07/25 05:40:28;;;;;;;18.10;10.38;;;;;;;;;;5034191;28;20033;-75
2022/07/25 05:42:54;;;;;;;13.93;10.00;;;;;;;;;;5034164;28;20025;-76
2022/07/25 05:45:20;;;;;;;21.13;10.90;;;;;;;;;;5035259;28;20075;-75
2022/07/25 05:47:46;;;;;;;16.83;9.98;;;;;;;;;;5054130;28;20379;-77
2022/07/25 05:50:12;;;;;;;16.48;10.80;;;;;;;;;;5054247;28;20033;-77
2022/07/25 05:52:38;;;;;;;16.00;11.10;;;;;;;;;;5054549;28;20463;-78
2022/07/25 05:55:04;;;;;;;15.50;10.32;;;;;;;;;;5054423;28;20022;-77
2022/07/25 05:57:30;;;;;;;20.77;10.02;;;;;;;;;;5054105;28;20033;-77
2022/07/25 05:59:56;;;;;;;14.30;9.13;;;;;;;;;;5053836;28;20371;-76
2022/07/25 06:02:23;;;;;;;14.93;9.85;;;;;;;;;;5053378;28;20096;-76
2022/07/25 06:04:49;;;;;;;18.95;9.32;;;;;;;;;;5053842;28;20025;-76
2022/07/25 06:07:15;;;;;;;16.70;9.23;;;;;;;;;;5053612;28;20036;-76
2022/07/25 06:09:41;;;;;;;14.70;8.52;;;;;;;;;;5053616;28;20025;-76
2022/07/25 06:12:07;;;;;;;15.40;8.48;;;;;;;;;;5053565;28;20025;-75
2022/07/25 06:14:33;;;;;;;13.07;8.52;;;;;;;;;;5052174;28;20029;-75
2022/07/25 06:16:59;;;;;;;14.18;8.75;;;;;;;;;;5053436;28;20522;-75
2022/07/25 06:19:25;;;;;;;12.48;8.68;;;;;;;;;;5052166;28;20064;-76
2022/07/25 06:21:52;;;;;;;11.98;7.75;;;;;;;;;;5052808;28;20032;-75
2022/07/25 06:24:18;;;;;;;14.60;8.35;;;;;;;;;;5052934;28;20104;-75
2022/07/25 06:26:44;;;;;;;15.60;8.38;;;;;;;;;;5052952;28;20064;-75
2022/07/25 06:29:10;;;;;;;12.50;7.78;;;;;;;;;;5053309;28;20025;-75
2022/07/25 06:31:36;;;;;;;12.50;7.68;;;;;;;;;;5053253;28;20025;-76
2022/07/25 06:34:02;;;;;;;10.35;7.90;;;;;;;;;;5053247;28;20021;-76
2022/07/25 06:36:28;;;;;;;11.15;7.65;;;;;;;;;;5052837;28;20031;-76
2022/07/25 06:38:54;;;;;;;12.98;7.88;;;;;;;;;;5052499;28;20030;-76
2022/07/25 06:41:20;;;;;;;14.43;8.60;;;;;;;;;;5052914;28;20021;-75
2022/07/25 06:43:46;;;;;;;11.40;8.10;;;;;;;;;;5052238;28;20032;-76
2022/07/25 06:46:12;;;;;;;12.00;8.45;;;;;;;;;;5052397;28;20043;-76
2022/07/25 06:48:38;;;;;;;14.73;8.93;;;;;;;;;;5052219;28;20033;-76
2022/07/25 06:51:04;;;;;;;14.00;8.55;;;;;;;;;;5052248;28;20945;-75
2022/07/25 06:53:30;;;;;;;13.70;8.40;;;;;;;;;;5052584;28;20025;-75
2022/07/25 06:55:56;;;;;;;20.58;7.65;;;;;;;;;;5052682;28;20017;-76
2022/07/25 06:58:22;;;;;;;13.65;7.90;;;;;;;;;;5052704;28;20021;-76
2022/07/25 07:00:49;;;;;;;14.30;7.78;;;;;;;;;;5052792;28;20032;-76
2022/07/25 07:03:15;;;;;;;14.95;7.80;;;;;;;;;;5052665;28;20094;-75
2022/07/25 07:05:41;;;;;;;11.98;7.78;;;;;;;;;;5052580;28;20032;-76
2022/07/25 07:08:07;;;;;;;9.18;6.57;;;;;;;;;;5052312;28;20509;-75
2022/07/25 07:10:33;;;;;;;12.35;6.38;;;;;;;;;;5052255;28;20472;-77
2022/07/25 07:13:07;;;;;;;11.02;6.35;;;;;;;;;;5052259;28;20108;-75
2022/07/25 07:15:34;;;;;;;8.43;6.07;;;;;;;;;;5052127;28;20021;-75
2022/07/25 07:18:00;;;;;;;12.23;6.00;;;;;;;;;;5051804;28;20383;-75
2022/07/25 07:20:26;;;;;;;9.95;5.18;;;;;;;;;;5051960;28;20033;-75
2022/07/25 07:22:52;;;;;;;7.70;5.60;;;;;;;;;;5051917;28;20328;-77
2022/07/25 07:25:20;;;;;;;10.35;5.35;;;;;;;;;;5052244;28;20051;-78
2022/07/25 07:27:46;;;;;;;6.80;5.40;;;;;;;;;;5052299;28;20102;-76
2022/07/25 07:30:15;;;;;;;10.85;4.47;;;;;;;;;;5051990;28;20108;-77
2022/07/25 07:32:41;;;;;;;9.63;4.50;;;;;;;;;;5052123;28;20021;-77
2022/07/25 07:35:08;;;;;;;10.27;5.13;;;;;;;;;;5051909;28;20059;-77
2022/07/25 07:37:34;;;;;;;4.90;3.85;;;;;;;;;;5051942;28;20408;-77
2022/07/25 07:40:00;;;;;;;10.48;4.00;;;;;;;;;;5052195;28;20037;-77
2022/07/25 07:42:26;;;;;;;10.43;2.67;;;;;;;;;;5051421;28;20032;-77
2022/07/25 07:44:52;;;;;;;6.40;2.53;;;;;;;;;;5051396;28;20036;-77
2022/07/25 07:47:20;;;;;;;4.57;2.50;;;;;;;;;;5050576;28;20487;-77
2022/07/25 07:49:46;;;;;;;4.85;2.13;;;;;;;;;;5049823;28;20025;-77
2022/07/25 07:52:12;;;;;;;4.30;2.30;;;;;;;;;;5049692;28;20391;-77
2022/07/25 07:57:23;;;;;;;3.92;2.55;;;;;;;;;;5051839;28;20441;-77
2022/07/25 07:59:49;;;;;;;7.25;2.97;;;;;;;;;;5051764;28;20103;-77
2022/07/25 08:02:15;;;;;;;4.40;2.83;;;;;;;;;;5051901;28;20025;-77
2022/07/25 08:04:41;;;;;;;4.60;2.60;;;;;;;;;;5051894;28;20075;-77
2022/07/25 08:07:07;;;;;;;4.53;2.80;;;;;;;;;;5052051;28;20033;-77
2022/07/25 08:09:33;;;;;;;4.60;2.33;;;;;;;;;;5051790;28;20033;-77
2022/07/25 08:11:59;;;;;;;3.75;2.60;;;;;;;;;;5051716;28;20021;-77
2022/07/25 08:14:25;;;;;;;5.47;2.20;;;;;;;;;;5051692;28;20024;-76
2022/07/25 08:16:51;;;;;;;3.83;1.85;;;;;;;;;;5051650;28;20440;-77
2022/07/25 08:19:17;;;;;;;3.65;1.55;;;;;;;;;;5051534;28;20080;-80
2022/07/25 08:21:44;;;;;;;4.43;1.20;;;;;;;;;;5051742;28;20033;-81
2022/07/25 08:24:10;;;;;;;4.10;1.17;;;;;;;;;;5051678;28;20023;-81
2022/07/25 08:26:36;;;;;;;2.92;1.20;;;;;;;;;;5050835;28;20021;-77
2022/07/25 08:29:02;;;;;;;4.38;1.20;;;;;;;;;;5051127;28;20052;-77
2022/07/25 08:31:28;;;;;;;4.03;1.25;;;;;;;;;;5051779;28;20079;-78
2022/07/25 08:33:54;;;;;;;2.35;1.23;;;;;;;;;;5050579;28;20037;-77
2022/07/25 08:36:20;;;;;;;1.48;0.82;;;;;;;;;;5050643;28;20028;-77
2022/07/25 08:38:46;;;;;;;2.30;1.25;;;;;;;;;;5050132;28;20025;-78
2022/07/25 08:41:12;;;;;;;5.00;1.13;;;;;;;;;;5050262;28;20029;-78
2022/07/25 08:43:39;;;;;;;3.42;1.10;;;;;;;;;;5050770;28;20033;-79
2022/07/25 08:46:05;;;;;;;2.85;1.20;;;;;;;;;;5050830;28;20029;-78
2022/07/25 08:48:31;;;;;;;2.95;1.20;;;;;;;;;;5051022;28;20082;-77
2022/07/25 08:50:59;;;;;;;1.65;0.80;;;;;;;;;;5049966;28;20055;-77
2022/07/25 08:53:25;;;;;;;2.38;0.80;;;;;;;;;;5050806;28;20064;-77
2022/07/25 08:55:51;;;;;;;5.57;1.02;;;;;;;;;;5051019;28;20056;-76
2022/07/25 08:58:17;;;;;;;2.58;0.75;;;;;;;;;;5051071;28;20059;-78
2022/07/25 09:00:44;;;;;;;2.05;0.98;;;;;;;;;;5051747;28;20032;-78
2022/07/25 09:03:10;;;;;;;2.42;0.73;;;;;;;;;;5053537;28;20036;-79
2022/07/25 09:05:36;;;;;;;2.50;0.65;;;;;;;;;;5054722;28;20522;-79
2022/07/25 09:08:06;;;;;;;1.85;0.80;;;;;;;;;;5054661;28;20033;-78
2022/07/25 09:10:32;;;;;;;4.30;0.80;;;;;;;;;;5052961;28;20025;-79
2022/07/25 09:13:00;;;;;;;2.13;0.70;;;;;;;;;;5054879;28;20028;-80
2022/07/25 09:15:28;;;;;;;2.88;0.90;;;;;;;;;;5054025;28;20063;-79
2022/07/25 09:17:55;;;;;;;1.67;0.80;;;;;;;;;;5036559;28;20104;-79
2022/07/25 09:20:21;;;;;;;3.95;0.90;;;;;;;;;;5051001;28;20094;-78
2022/07/25 09:22:47;;;;;;;2.45;1.00;;;;;;;;;;5053012;28;20124;-79
2022/07/25 09:25:39;;;;;;;3.78;0.90;;;;;;;;;;5046923;28;20049;-79
2022/07/25 09:28:23;;;;;;;2.65;0.95;;;;;;;;;;5043253;28;20099;-79
2022/07/25 09:30:57;;;;;;;4.93;1.00;;;;;;;;;;5050805;28;20114;-78
2022/07/25 09:33:24;;;;;;;5.75;0.80;;;;;;;;;;5046701;28;20017;-80
2022/07/25 09:35:50;;;;;;;6.40;1.02;;;;;;;;;;5043428;28;20108;-79
2022/07/25 09:38:17;;;;;;;3.92;1.10;;;;;;;;;;5042338;28;20040;-80
2022/07/25 09:40:53;;;;;;;6.65;1.10;;;;;;;;;;5054110;28;20025;-80
2022/07/25 09:43:19;;;;;;;8.02;1.30;;;;;;;;;;5052011;28;20033;-80
2022/07/25 09:45:49;;;;;;;5.13;1.15;;;;;;;;;;5053713;28;20104;-80
2022/07/25 09:48:17;;;;;;;1.73;1.00;;;;;;;;;;5054439;28;20049;-79
2022/07/25 09:50:43;;;;;;;5.50;1.52;;;;;;;;;;5052670;28;20410;-79
2022/07/25 09:53:10;;;;;;;3.05;1.25;;;;;;;;;;5054449;28;20017;-79
2022/07/25 09:55:36;;;;;;;4.80;1.20;;;;;;;;;;5054114;28;20414;-79
2022/07/25 09:58:03;;;;;;;4.78;1.20;;;;;;;;;;5054791;28;20021;-79
2022/07/25 10:00:31;;;;;;;6.78;1.80;;;;;;;;;;5054173;28;20025;-79
2022/07/25 10:03:15;;;;;;;3.95;1.30;;;;;;;;;;5053106;28;20091;-80
2022/07/25 10:06:14;;;;;;;6.05;1.20;;;;;;;;;;5054211;28;20029;-79
2022/07/25 10:08:40;;;;;;;9.50;1.48;;;;;;;;;;5031546;28;20136;-80
2022/07/25 10:11:17;;;;;;;7.55;1.50;;;;;;;;;;5031959;28;20172;-81
2022/07/25 10:13:43;;;;;;;12.88;1.52;;;;;;;;;;5030252;28;20128;-80
2022/07/25 10:16:17;;;;;;;6.85;1.52;;;;;;;;;;5015374;28;20030;-80
2022/07/25 10:18:53;;;;;;;5.53;1.33;;;;;;;;;;5031490;28;20126;-79
2022/07/25 10:21:19;;;;;;;5.38;1.88;;;;;;;;;;5032888;28;20432;-83
2022/07/25 10:23:46;;;;;;;5.22;1.40;;;;;;;;;;5031996;28;20029;-83
2022/07/25 10:26:14;;;;;;;6.18;1.27;;;;;;;;;;5032120;28;20048;-84
2022/07/25 10:28:42;;;;;;;4.55;1.50;;;;;;;;;;5032179;28;20104;-82
2022/07/25 10:31:20;;;;;;;4.65;1.70;;;;;;;;;;5024414;28;20499;-82
2022/07/25 10:33:59;;;;;;;3.15;1.25;;;;;;;;;;5029371;28;20377;-80
2022/07/25 10:36:32;;;;;;;8.25;1.10;;;;;;;;;;5031552;28;20021;-82
2022/07/25 10:39:00;;;;;;;4.70;1.33;;;;;;;;;;5031891;28;20106;-81
2022/07/25 10:41:28;;;;;;;4.85;1.55;;;;;;;;;;5031637;28;20017;-81
2022/07/25 10:44:00;;;;;;;8.10;1.70;;;;;;;;;;5040008;28;20493;-83
2022/07/25 10:46:29;;;;;;;10.60;1.50;;;;;;;;;;5037606;28;20032;-83
2022/07/25 10:49:01;;;;;;;5.22;1.52;;;;;;;;;;5053503;28;20184;-83
2022/07/25 10:51:28;;;;;;;8.70;1.77;;;;;;;;;;5053252;28;20068;-84
2022/07/25 10:53:54;;;;;;;7.43;1.80;;;;;;;;;;5053659;28;20053;-82
2022/07/25 10:56:22;;;;;;;4.45;1.45;;;;;;;;;;5052528;28;20017;-82
2022/07/25 10:58:59;;;;;;;4.05;1.58;;;;;;;;;;5053821;28;20025;-82
2022/07/25 11:01:26;;;;;;;7.55;1.80;;;;;;;;;;5053660;28;20032;-83
2022/07/25 11:03:53;;;;;;;7.35;1.70;;;;;;;;;;5053787;28;20104;-82
2022/07/25 11:06:36;;;;;;;4.57;1.35;;;;;;;;;;5053567;28;20055;-82
2022/07/25 11:09:04;;;;;;;5.75;1.48;;;;;;;;;;5033908;28;20029;-80
2022/07/25 11:11:34;;;;;;;4.82;1.20;;;;;;;;;;5048337;28;20029;-84
2022/07/25 11:14:00;;;;;;;6.07;1.65;;;;;;;;;;5053504;28;20039;-83
2022/07/25 11:16:27;;;;;;;8.73;1.45;;;;;;;;;;5053928;28;20021;-82
2022/07/25 11:18:53;;;;;;;8.40;1.33;;;;;;;;;;5053122;28;20041;-83
2022/07/25 11:21:20;;;;;;;6.35;1.73;;;;;;;;;;5051905;28;20048;-82
2022/07/25 11:23:52;;;;;;;6.10;1.67;;;;;;;;;;5052081;28;20024;-78
2022/07/25 11:26:18;;;;;;;9.25;1.35;;;;;;;;;;5053178;28;20040;-83
2022/07/25 11:28:46;;;;;;;6.53;1.15;;;;;;;;;;5052942;28;20059;-79
2022/07/25 11:31:13;;;;;;;5.00;1.30;;;;;;;;;;5053089;28;20045;-81
2022/07/25 11:33:40;;;;;;;8.65;1.30;;;;;;;;;;5053162;28;20009;-81
2022/07/25 11:36:06;;;;;;;8.02;1.30;;;;;;;;;;5052889;28;20114;-82
2022/07/25 11:38:33;;;;;;;8.20;1.17;;;;;;;;;;5052540;28;20025;-82
2022/07/25 11:40:59;;;;;;;3.42;1.20;;;;;;;;;;5052805;28;20688;-82
2022/07/25 11:43:26;;;;;;;7.78;1.20;;;;;;;;;;5051512;28;20047;-82
2022/07/25 11:46:03;;;;;;;8.02;1.83;;;;;;;;;;5051187;28;20035;-82
2022/07/25 11:48:37;;;;;;;6.75;1.85;;;;;;;;;;5050298;28;20044;-83
2022/07/25 11:51:11;;;;;;;6.78;1.70;;;;;;;;;;5051308;28;20025;-83
2022/07/25 11:53:40;;;;;;;6.60;2.00;;;;;;;;;;5052660;28;20036;-80
2022/07/25 11:56:10;;;;;;;5.55;1.50;;;;;;;;;;5052800;28;20445;-83
2022/07/25 11:58:36;;;;;;;5.63;1.60;;;;;;;;;;5052605;28;20025;-79
2022/07/25 12:01:10;;;;;;;6.95;1.73;;;;;;;;;;5052747;28;20067;-82
2022/07/25 12:03:37;;;;;;;11.27;1.98;;;;;;;;;;5053240;28;20079;-82
2022/07/25 12:06:07;;;;;;;9.70;1.88;;;;;;;;;;5052572;28;20102;-82
2022/07/25 12:08:36;;;;;;;6.63;2.10;;;;;;;;;;5051790;28;20390;-81
2022/07/25 12:11:02;;;;;;;10.57;2.55;;;;;;;;;;5052824;28;20036;-82
2022/07/25 12:13:29;;;;;;;5.13;1.80;;;;;;;;;;5052961;28;20458;-83
2022/07/25 12:15:56;;;;;;;9.27;2.00;;;;;;;;;;5052939;28;20029;-80
2022/07/25 12:18:22;;;;;;;6.00;2.00;;;;;;;;;;5052963;28;20564;-81
2022/07/25 12:20:48;;;;;;;7.32;1.83;;;;;;;;;;5052959;28;20037;-82
2022/07/25 12:23:14;;;;;;;7.78;1.85;;;;;;;;;;5053030;28;20059;-81
2022/07/25 12:25:42;;;;;;;10.05;2.38;;;;;;;;;;5052639;28;20033;-83
2022/07/25 12:28:09;;;;;;;6.57;2.20;;;;;;;;;;5051161;28;20032;-80
2022/07/25 12:30:36;;;;;;;5.63;1.90;;;;;;;;;;5052541;28;20412;-81
2022/07/25 12:33:02;;;;;;;8.85;2.33;;;;;;;;;;5052075;28;20311;-79
2022/07/25 12:35:28;;;;;;;9.30;2.20;;;;;;;;;;5052058;28;20024;-79
2022/07/25 12:37:54;;;;;;;7.00;2.15;;;;;;;;;;5055519;28;20021;-79
2022/07/25 12:40:21;;;;;;;6.65;2.00;;;;;;;;;;5055946;28;20116;-79
2022/07/25 12:42:47;;;;;;;9.32;2.28;;;;;;;;;;5056135;28;20037;-80
2022/07/25 12:45:14;;;;;;;13.40;2.33;;;;;;;;;;5056165;28;20404;-80
2022/07/25 12:47:41;;;;;;;15.40;2.63;;;;;;;;;;5056056;28;20017;-80
2022/07/25 12:50:07;;;;;;;9.75;2.30;;;;;;;;;;5054739;28;20079;-80
2022/07/25 12:52:34;;;;;;;9.68;2.58;;;;;;;;;;5055006;28;20517;-80
2022/07/25 12:55:00;;;;;;;14.45;2.90;;;;;;;;;;5055946;28;20025;-80
2022/07/25 12:57:26;;;;;;;19.48;2.70;;;;;;;;;;5055943;28;20106;-80
2022/07/25 12:59:52;;;;;;;11.95;2.72;;;;;;;;;;5055837;28;20393;-80
2022/07/25 13:02:18;;;;;;;8.65;2.67;;;;;;;;;;5055737;28;20098;-80
2022/07/25 13:04:44;;;;;;;10.73;2.55;;;;;;;;;;5055534;28;20554;-79
2022/07/25 13:07:10;;;;;;;6.55;2.25;;;;;;;;;;5055842;28;20021;-80
2022/07/25 13:09:36;;;;;;;7.05;2.20;;;;;;;;;;5055818;28;20414;-80
2022/07/25 13:12:02;;;;;;;10.25;2.55;;;;;;;;;;5055767;28;20017;-80
2022/07/25 13:14:27;;;;;;;8.45;2.35;;;;;;;;;;5055681;28;20025;-81
2022/07/25 13:16:54;;;;;;;7.22;2.42;;;;;;;;;;5055545;28;20048;-80
2022/07/25 13:19:20;;;;;;;5.07;1.70;;;;;;;;;;5055413;28;20395;-80
2022/07/25 13:21:46;;;;;;;10.00;2.15;;;;;;;;;;5055302;28;20029;-80
2022/07/25 13:24:12;;;;;;;6.85;2.17;;;;;;;;;;5055389;28;20045;-80
2022/07/25 13:26:38;;;;;;;9.77;1.90;;;;;;;;;;5055559;28;20367;-81
2022/07/25 13:29:10;;;;;;;13.85;1.95;;;;;;;;;;5055484;28;20029;-80
2022/07/25 13:31:36;;;;;;;9.57;1.70;;;;;;;;;;5055302;28;20028;-81
2022/07/25 13:34:02;;;;;;;12.50;1.95;;;;;;;;;;5055571;28;20070;-87
2022/07/25 13:36:28;;;;;;;11.93;1.60;;;;;;;;;;5054228;28;20440;-79
2022/07/25 13:38:54;;;;;;;10.82;1.95;;;;;;;;;;5053747;28;20029;-87
2022/07/25 13:41:21;;;;;;;10.77;1.83;;;;;;;;;;5055412;28;20079;-88
2022/07/25 13:43:47;;;;;;;10.77;1.80;;;;;;;;;;5054153;28;20032;-84
2022/07/25 13:46:13;;;;;;;9.07;1.67;;;;;;;;;;5055195;28;20425;-86
2022/07/25 13:48:39;;;;;;;12.70;1.63;;;;;;;;;;5055113;28;20032;-88
2022/07/25 13:51:05;;;;;;;9.73;1.80;;;;;;;;;;5055049;28;20140;-88
2022/07/25 13:53:31;;;;;;;7.57;1.75;;;;;;;;;;5055343;28;20063;-89
2022/07/25 13:55:58;;;;;;;10.38;2.05;;;;;;;;;;5055139;28;20424;-88
2022/07/25 13:58:25;;;;;;;10.85;1.77;;;;;;;;;;5054418;28;20017;-89
2022/07/25 14:00:51;;;;;;;5.75;1.55;;;;;;;;;;5054110;28;20441;-88
2022/07/25 14:03:17;;;;;;;14.95;1.80;;;;;;;;;;5054729;28;20025;-86
2022/07/25 14:05:43;;;;;;;7.43;1.83;;;;;;;;;;5054758;28;20104;-81
2022/07/25 14:08:09;;;;;;;7.15;2.05;;;;;;;;;;5054656;28;20045;-81
2022/07/25 14:10:35;;;;;;;12.77;1.92;;;;;;;;;;5054595;28;20029;-84
2022/07/25 14:13:01;;;;;;;6.10;1.75;;;;;;;;;;5055005;28;20426;-83
2022/07/25 14:15:27;;;;;;;14.60;1.95;;;;;;;;;;5053573;28;20127;-84
2022/07/25 14:17:53;;;;;;;8.23;2.63;;;;;;;;;;5054190;28;20126;-82
2022/07/25 14:20:19;;;;;;;13.75;2.10;;;;;;;;;;5054546;28;20036;-83
2022/07/25 14:22:45;;;;;;;8.88;2.00;;;;;;;;;;5054340;28;20035;-85
2022/07/25 14:25:12;;;;;;;12.43;2.33;;;;;;;;;;5054272;28;20032;-84
2022/07/25 14:27:38;;;;;;;11.40;2.00;;;;;;;;;;5052972;28;20467;-83
2022/07/25 14:30:05;;;;;;;13.10;2.00;;;;;;;;;;5054084;28;20029;-84
2022/07/25 14:32:32;;;;;;;7.85;1.90;;;;;;;;;;5053685;28;20032;-84
2022/07/25 14:35:00;;;;;;;11.30;2.25;;;;;;;;;;5054147;28;20052;-83
2022/07/25 14:37:27;;;;;;;10.25;1.80;;;;;;;;;;5050294;28;20017;-83